Latest Weather Observations for Hamilton

IDV60801

Issued at 2:31 pm EDT Sunday 14 February 2016 (issued every 30 minutes, with the page automatically refreshed every 10 minutes)

About weather observations | Map of weather stations | Latest weather observations for VIC | Other Formats
Station Details ID: 090173 Name: HAMILTON AIRPORT Lat: -37.65 Lon: 142.06 Height: 241.1 m
Data from the previous 72 hours. | See also: Recent months at Hamilton
Date/Time
EDT
Temp
°C
App
Temp
°C
Dew
Point
Rel
Hum
%
Delta-T
°C
Wind Press
QNH
hPa
Press
MSL
hPa
Rain
since 9 am
mm
Dir
 
Spd
km/h
Gust
km/h
Spd
kts
Gust
kts
14/02:30pm 21.4 15.7 6.5 38 7.6 W 26 37 14 20 1013.0 1012.3 0.0
14/02:00pm 21.5 16.5 8.1 42 7.1 W 24 37 13 20 1013.2 1012.5 0.0
14/01:30pm 19.4 13.6 8.1 48 5.9 WSW 28 37 15 20 1013.5 1012.8 0.0
14/01:00pm 19.8 16.1 10.2 54 5.2 SW 20 24 11 13 1013.6 1012.9 0.0
14/12:30pm 19.4 13.8 10.1 55 5.0 WSW 30 44 16 24 1013.6 1012.9 0.0
14/12:00pm 17.4 13.1 10.8 65 3.6 W 24 32 13 17 1013.9 1013.2 0.0
14/11:30am 18.3 14.0 10.7 61 4.1 W 24 33 13 18 1013.8 1013.1 0.0
14/11:00am 17.5 13.4 11.3 67 3.4 WNW 24 33 13 18 1013.9 1013.2 0.0
14/10:30am 16.3 12.9 11.2 72 2.8 WNW 20 26 11 14 1014.0 1013.3 0.0
14/10:00am 14.7 11.5 12.0 84 1.5 WNW 20 26 11 14 1013.9 1013.2 0.0
14/09:30am 16.2 12.5 10.1 67 3.2 W 20 28 11 15 1013.6 1012.9 0.0
14/09:00am 15.9 12.7 10.0 68 3.1 W 17 24 9 13 1013.4 1012.7 0.0
14/08:30am 14.7 12.4 10.3 75 2.3 W 13 20 7 11 1013.2 1012.5 0.0
14/08:00am 13.5 11.5 10.1 80 1.8 WNW 11 15 6 8 1012.8 1012.1 0.0
14/07:30am 12.7 10.6 9.9 83 1.5 WNW 11 13 6 7 1012.6 1011.9 0.0
14/07:00am 12.3 9.9 10.0 86 1.2 WNW 13 17 7 9 1012.2 1011.5 0.0
14/06:30am 11.4 9.2 9.5 88 1.0 W 11 15 6 8 1011.9 1011.1 0.0
14/06:00am 11.6 9.5 9.7 88 1.0 WNW 11 15 6 8 1011.4 1010.6 0.0
14/05:30am 11.7 9.6 9.6 87 1.1 WNW 11 15 6 8 1011.3 1010.5 0.0
14/05:00am 12.0 9.9 9.7 86 1.2 W 11 13 6 7 1011.0 1010.2 0.0
14/04:30am 11.7 9.9 9.6 87 1.1 WNW 9 13 5 7 1011.0 1010.2 0.0
14/04:00am 12.6 10.6 10.0 84 1.4 WNW 11 15 6 8 1011.0 1010.2 0.0
14/03:30am 12.9 10.5 9.9 82 1.6 W 13 19 7 10 1011.0 1010.2 0.0
14/03:00am 13.2 10.3 9.8 80 1.8 WNW 15 20 8 11 1011.0 1010.2 0.0
14/02:30am 13.1 10.7 10.1 82 1.6 WNW 13 17 7 9 1011.2 1010.4 0.0
14/02:00am 12.7 10.9 9.5 81 1.6 WNW 9 13 5 7 1011.4 1010.6 0.0
14/01:30am 12.8 10.6 9.4 80 1.7 WNW 11 13 6 7 1011.6 1010.8 0.0
14/01:00am 14.1 12.5 10.3 78 2.0 WNW 9 13 5 7 1011.8 1011.0 0.0
14/12:30am 14.4 12.9 10.4 77 2.1 W 9 13 5 7 1011.9 1011.1 0.0
14/12:00am 15.4 13.1 10.4 72 2.7 WSW 13 19 7 10 1012.2 1011.5 0.0
 
Date/Time
EDT
Temp
°C
App
Temp
°C
Dew
Point
Rel
Hum
%
Delta-T
°C
Wind Press
QNH
hPa
Press
MSL
hPa
Rain
since 9 am
mm
Dir
 
Spd
km/h
Gust
km/h
Spd
kts
Gust
kts
13/11:30pm 16.4 13.5 11.1 71 2.9 WSW 17 20 9 11 1012.4 1011.7 0.0
13/11:00pm 16.4 13.4 12.0 75 2.4 SW 19 24 10 13 1012.5 1011.8 0.0
13/10:30pm 16.3 14.2 12.3 77 2.2 SW 15 17 8 9 1012.5 1011.8 0.0
13/10:00pm 16.7 13.9 12.5 76 2.3 SW 19 28 10 15 1012.3 1011.6 0.0
13/09:30pm 16.7 13.7 12.7 77 2.2 WSW 20 26 11 14 1011.9 1011.1 0.0
13/09:00pm 17.3 12.8 12.6 74 2.6 WSW 28 35 15 19 1011.5 1010.7 0.0
13/08:30pm 18.6 13.4 13.5 72 2.9 SW 33 41 18 22 1010.9 1010.1 0.0
13/08:00pm 19.5 14.2 13.0 66 3.7 SW 33 44 18 24 1010.2 1009.5 0.0
13/07:30pm 21.9 17.4 13.8 60 4.7 WSW 30 39 16 21 1009.6 1008.9 0.0
13/07:00pm 23.7 18.8 14.4 56 5.6 WSW 33 44 18 24 1009.1 1008.4 0.0
13/06:30pm 25.3 20.5 14.1 50 6.7 WSW 32 39 17 21 1008.8 1008.1 0.0
13/06:00pm 27.2 21.7 12.0 38 8.9 WSW 32 43 17 23 1008.4 1007.6 0.0
13/05:30pm 28.1 22.9 11.6 36 9.6 WSW 30 39 16 21 1008.5 1007.7 0.0
13/05:00pm 28.6 23.9 12.1 36 9.7 W 28 41 15 22 1008.3 1007.5 0.0
13/04:30pm 28.9 24.6 11.9 35 10.0 WSW 26 41 14 22 1008.1 1007.3 0.0
13/04:00pm 29.5 25.7 12.4 35 10.1 W 24 33 13 18 1008.3 1007.5 0.0
13/03:30pm 29.2 25.9 11.7 34 10.2 WSW 20 35 11 19 1008.4 1007.6 0.0
13/03:00pm 28.3 23.7 10.9 34 10.0 W 26 37 14 20 1008.8 1008.1 0.0
13/02:30pm 28.5 23.5 9.7 31 10.6 W 26 43 14 23 1009.0 1008.3 0.0
13/02:00pm 27.8 21.4 8.6 30 10.6 W 32 39 17 21 1009.2 1008.5 0.0
13/01:30pm 27.1 20.6 6.5 27 10.9 W 30 46 16 25 1009.4 1008.7 0.0
13/01:28pm 27.3 21.2 6.7 27 11.0 W 28 46 15 25 1009.3 1008.6 0.0
13/01:00pm 26.9 21.9 7.9 30 10.3 WNW 24 37 13 20 1009.6 1008.9 0.0
13/12:30pm 25.4 21.0 8.8 35 9.1 NW 22 33 12 18 1010.0 1009.3 0.0
13/12:00pm 23.3 20.5 10.0 43 7.4 NW 15 24 8 13 1010.3 1009.6 0.0
13/11:30am 21.8 18.8 10.6 49 6.2 NW 17 24 9 13 1010.6 1009.9 0.0
13/11:00am 21.3 18.6 10.5 50 6.0 NW 15 24 8 13 1010.9 1010.1 0.0
13/10:30am 20.3 17.6 10.4 53 5.4 WSW 15 19 8 10 1011.1 1010.3 0.0
13/10:00am 19.9 16.8 10.3 54 5.2 WSW 17 26 9 14 1011.1 1010.3 0.0
13/09:30am 19.1 16.3 9.9 55 5.0 W 15 22 8 12 1011.0 1010.2 0.0
13/09:00am 18.3 15.1 9.9 58 4.5 W 17 22 9 12 1011.0 1010.2 0.0
13/08:30am 17.6 15.8 12.1 70 3.1 NW 13 17 7 9 1010.6 1009.9 0.0
13/08:00am 16.0 13.8 12.2 78 2.1 NNW 15 17 8 9 1010.3 1009.6 0.0
13/07:30am 15.3 13.8 11.9 80 1.9 NNW 11 15 6 8 1010.3 1009.6 0.0
13/07:00am 14.8 13.2 11.6 81 1.7 NW 11 13 6 7 1010.2 1009.5 0.0
13/06:30am 14.4 12.6 11.0 80 1.8 NW 11 13 6 7 1010.0 1009.3 0.0
13/06:00am 14.9 12.5 11.5 80 1.8 NNW 15 17 8 9 1009.7 1009.0 0.0
13/05:30am 14.7 13.1 11.7 82 1.6 NW 11 13 6 7 1009.7 1009.0 0.0
13/05:00am 14.3 13.1 11.5 83 1.5 NNW 9 11 5 6 1009.3 1008.6 0.0
13/04:30am 13.8 12.4 11.0 83 1.5 N 9 11 5 6 1009.3 1008.6 0.0
13/04:00am 13.1 11.2 10.5 84 1.4 N 11 15 6 8 1009.5 1008.8 0.0
13/03:30am 14.2 13.3 11.2 82 1.6 NNW 7 9 4 5 1010.1 1009.4 0.0
13/03:00am 14.4 13.6 11.6 83 1.5 NNW 7 9 4 5 1009.9 1009.2 0.0
13/02:30am 14.2 13.3 11.2 82 1.6 NW 7 9 4 5 1010.2 1009.5 0.0
13/02:00am 14.2 14.6 11.4 83 1.5 CALM 0 0 0 0 1010.4 1009.7 0.0
13/01:30am 13.8 12.8 11.0 83 1.5 WNW 7 9 4 5 1010.7 1010.0 0.0
13/01:00am 13.4 12.4 10.9 85 1.3 NE 7 9 4 5 1010.7 1010.0 0.0
13/12:30am 14.0 12.3 11.2 83 1.5 NE 11 15 6 8 1010.9 1010.1 0.0
13/12:00am 14.8 13.2 11.4 80 1.8 ENE 11 13 6 7 1011.4 1010.6 0.0
 
Date/Time
EDT
Temp
°C
App
Temp
°C
Dew
Point
Rel
Hum
%
Delta-T
°C
Wind Press
QNH
hPa
Press
MSL
hPa
Rain
since 9 am
mm
Dir
 
Spd
km/h
Gust
km/h
Spd
kts
Gust
kts
12/11:30pm 15.4 13.5 11.8 79 2.0 E 13 15 7 8 1011.7 1010.9 0.0
12/11:00pm 15.7 14.4 11.1 74 2.5 SE 9 11 5 6 1012.1 1011.3 0.0
12/10:30pm 16.6 15.0 11.7 73 2.7 S 11 13 6 7 1012.6 1011.9 0.0
12/10:00pm 17.1 15.1 11.4 69 3.1 WSW 13 15 7 8 1012.7 1012.0 0.0
12/09:30pm 18.6 16.7 11.9 65 3.7 SSE 13 17 7 9 1012.2 1011.5 0.0
12/09:00pm 19.9 17.6 11.9 60 4.5 SSE 15 17 8 9 1012.1 1011.3 0.0
12/08:30pm 22.0 19.0 12.0 53 5.7 SSE 19 24 10 13 1012.1 1011.3 0.0
12/08:00pm 24.2 20.6 11.9 46 7.1 SSE 22 26 12 14 1011.7 1010.9 0.0
12/07:30pm 26.1 21.3 11.5 40 8.4 S 28 33 15 18 1011.3 1010.5 0.0
12/07:00pm 30.8 25.8 3.8 18 14.0 NW 19 32 10 17 1011.0 1010.2 0.0
12/06:30pm 30.9 26.3 3.8 18 14.0 WSW 17 24 9 13 1011.0 1010.2 0.0
12/06:00pm 30.6 27.8 5.1 20 13.5 NW 9 15 5 8 1011.3 1010.5 0.0
12/05:30pm 30.6 27.4 5.1 20 13.5 W 11 20 6 11 1011.5 1010.7 0.0
12/05:00pm 30.8 26.1 5.3 20 13.5 WSW 19 28 10 15 1011.9 1011.1 0.0
12/04:30pm 30.1 25.7 4.7 20 13.3 WSW 17 26 9 14 1012.2 1011.5 0.0
12/04:00pm 30.5 25.6 5.0 20 13.5 W 20 30 11 16 1012.6 1011.9 0.0
12/03:30pm 29.9 25.9 6.5 23 12.6 WNW 17 28 9 15 1012.8 1012.1 0.0
12/03:00pm 29.7 26.6 5.7 22 12.8 WNW 11 22 6 12 1013.2 1012.5 0.0
12/02:30pm 28.9 25.7 6.9 25 11.9 W 13 26 7 14 1013.7 1013.0 0.0
12/02:00pm 28.1 24.9 6.8 26 11.4 W 13 24 7 13 1014.0 1013.3 0.0
12/01:30pm 27.7 24.9 7.0 27 11.1 NW 11 20 6 11 1014.4 1013.7 0.0
12/01:00pm 26.0 24.0 8.5 33 9.6 SSE 9 17 5 9 1014.6 1013.9 0.0
12/12:30pm 25.0 22.9 8.1 34 9.1 ESE 9 19 5 10 1015.1 1014.4 0.0
12/12:00pm 24.7 22.8 9.0 37 8.6 NNE 9 13 5 7 1015.7 1014.9 0.0
12/11:30am 24.0 22.9 9.9 41 7.8 NW 6 11 3 6 1015.9 1015.2 0.0
12/11:00am 22.8 21.6 10.3 45 6.9 ESE 7 13 4 7 1015.9 1015.2 0.0
12/10:30am 21.0 19.2 10.8 52 5.6 E 11 17 6 9 1016.2 1015.5 0.0
12/10:00am 19.6 17.2 11.4 59 4.6 E 15 22 8 12 1016.4 1015.7 0.0
12/09:30am 18.4 15.4 11.9 66 3.6 E 19 24 10 13 1016.4 1015.7 0.0
12/09:00am 17.1 13.5 11.8 71 2.9 E 22 28 12 15 1016.3 1015.6 0.0
12/08:30am 15.9 12.8 12.1 78 2.1 E 20 28 11 15 1016.2 1015.5 0.0
12/08:00am 14.5 11.2 11.7 83 1.5 E 20 26 11 14 1016.2 1015.5 0.0
12/07:30am 12.7 9.8 10.9 89 1.0 E 17 19 9 10 1016.2 1015.5 0.0
12/07:00am 12.0 8.4 10.4 90 0.8 E 20 26 11 14 1016.1 1015.4 0.0
12/06:30am 11.5 7.8 10.2 92 0.7 ESE 20 26 11 14 1016.0 1015.3 0.0
12/06:00am 11.4 7.7 10.1 92 0.7 ESE 20 26 11 14 1016.1 1015.4 0.0
12/05:30am 11.7 8.0 10.3 91 0.7 ESE 20 24 11 13 1016.1 1015.4 0.0
12/05:00am 11.8 7.7 10.2 90 0.8 ESE 22 26 12 14 1016.1 1015.4 0.0
12/04:30am 11.8 8.1 10.2 90 0.8 SE 20 24 11 13 1016.2 1015.5 0.0
12/04:00am 12.0 8.5 10.1 88 1.0 ESE 19 24 10 13 1016.2 1015.5 0.0
12/03:30am 12.2 8.6 9.9 86 1.2 SE 19 24 10 13 1016.5 1015.8 0.0
12/03:00am 12.4 8.8 9.8 84 1.3 SE 19 24 10 13 1016.8 1016.1 0.0
12/02:30am 13.0 9.5 10.2 83 1.5 SE 19 24 10 13 1017.1 1016.4 0.0
12/02:00am 13.2 9.7 10.2 82 1.6 SE 19 20 10 11 1017.4 1016.7 0.0
12/01:30am 13.4 10.3 10.2 81 1.7 SE 17 20 9 11 1017.4 1016.7 0.0
12/01:00am 13.8 10.7 10.4 80 1.8 SE 17 20 9 11 1017.7 1017.0 0.0
12/12:30am 14.2 10.8 10.4 78 2.0 SE 19 20 10 11 1018.0 1017.3 0.0
12/12:00am 14.4 11.0 10.6 78 2.0 SE 19 24 10 13 1018.1 1017.4 0.0
 
Date/Time
EDT
Temp
°C
App
Temp
°C
Dew
Point
Rel
Hum
%
Delta-T
°C
Wind Press
QNH
hPa
Press
MSL
hPa
Rain
since 9 am
mm
Dir
 
Spd
km/h
Gust
km/h
Spd
kts
Gust
kts
11/11:30pm 15.0 11.5 10.8 76 2.3 SE 20 28 11 15 1018.2 1017.5 0.0
11/11:00pm 15.1 11.2 10.7 75 2.3 ESE 22 30 12 16 1018.2 1017.5 0.0
11/10:30pm 15.1 11.6 10.9 76 2.3 SE 20 26 11 14 1018.3 1017.6 0.0
11/10:00pm 15.6 11.8 11.0 74 2.5 SE 22 32 12 17 1018.2 1017.5 0.0
11/09:30pm 16.0 12.3 11.4 74 2.5 SE 22 30 12 16 1018.0 1017.3 0.0
11/09:00pm 16.7 12.3 11.6 72 2.8 SSE 26 33 14 18 1017.7 1017.0 0.0
11/08:30pm 17.6 12.4 11.6 68 3.3 SSE 30 41 16 22 1017.5 1016.8 0.0
11/08:00pm 18.8 13.6 11.6 63 4.0 SSE 30 39 16 21 1017.0 1016.3 0.0
11/07:30pm 20.4 15.6 11.6 57 4.9 SSE 28 39 15 21 1016.7 1016.0 0.0
11/07:00pm 21.8 17.0 11.8 53 5.7 SSE 28 35 15 19 1016.1 1015.4 0.0
11/06:30pm 23.2 18.9 11.9 49 6.5 SSE 26 35 14 19 1015.8 1015.1 0.0
11/06:00pm 24.1 19.4 12.1 47 6.9 SSE 28 39 15 21 1015.7 1014.9 0.0
11/05:30pm 24.7 20.3 11.6 44 7.5 SSE 26 41 14 22 1015.6 1014.8 0.0
11/05:00pm 26.0 20.7 11.4 40 8.4 S 30 43 16 23 1015.4 1014.6 0.0
11/04:30pm 26.8 23.8 10.5 36 9.2 SSE 17 28 9 15 1015.4 1014.6 0.0
11/04:00pm 27.0 23.9 10.2 35 9.5 SSE 17 32 9 17 1015.4 1014.6 0.0
11/03:30pm 26.1 22.2 9.5 35 9.2 SSE 20 33 11 18 1015.6 1014.8 0.0
11/03:00pm 26.2 22.4 9.1 34 9.4 SE 19 32 10 17 1015.8 1015.1 0.0

Other Formats:

Comma delimited format used in spreadsheet applications
http://www.bom.gov.au/fwo/IDV60801/IDV60801.94829.axf

JavaScript Object Notation format (JSON) in row-major order
http://www.bom.gov.au/fwo/IDV60801/IDV60801.94829.json